Jack Frost Mountain, Pennsylvania
Current Conditions -  °F | °C
As of 1:53 PM on Friday 24 Oct 2014 (Local Time) from KMPO Reporting Station
Clear Clear  
Wind Chill: 58°   Ceiling: Unl
Heat Index: 58°   Visibility: 10mi
Dew Point: 40°   Wind: 23mph
Humidity: 51%   Direction: 310°NW
Pressure: 29.82"   Gusts: 35mph
Location:  41.1°N, 75.63°W
Report Text: KMPO 241753Z AUTO 31020G30KT 10SM CLR 14/04 A2982 RMK AO2 PK WND 31030/1740 SLP101 6//// T01440044 10150 20072 58010
Loading
Personal Weather Stations






























Interactive Weather Map
Tropical Storm Tracking
New forecast layout! Learn more

10-Day Weather Forecast

Advertisements
Track Severe Weather on mobile